Strona główna
METAR-TAF:

METAR-TAF

Lotnisko :

Greenbrier Valley Airport

Lewisburg, Wirginia Zachodnia, Stany Zjednoczone

Szerokość geograficzna: 37-52N, Długość geograficzna: 080-24W, wysokość: 702 m

Aktualna obserwacja pogody

Raport powstał 17 minut temu, godzina 05:35 UTC
Cisza
Temperatura -3°C
Wilgotność 74%
Ciśnienie 1018 hPa
Widzialność: 16.1 km
bezchmurnie

METAR: KLWB 030535Z AUTO 00000KT 10SM CLR M03/M07 A3006 RMK AO2 T10351073

czas: 00:52 (05:52 UTC)

Prognoza

Raport powstał 32 minut temu, godzina 05:20 UTC
Prognoza ważna od 03 godzina 06 UTC do 04 godzina 06 UTC
Wiatr 2 kt od zachód
Widzialność: 10 km
bezchmurnie
Od 03 godzina 1400 UTC
Wiatr 5 kt od zachód
Widzialność: 10 km
Mało chmury na wysokości 25000 ft

TAF: KLWB 030520Z 0306/0406 28002KT P6SM SKC FM031400 28005KT P6SM FEW250

Obserwacja i prognoza pogody dla ponad 4000 lotnisk (raport METAR i TAF).

Dostępne stacje oznaczono żółtymi i czerwonymi punktami na mapie.

Najedź kursorem aby zobaczyć nazwę stacji.

Kliknij aby zobaczyć obserwacje i prognozy pogody.

Aby zmienić mapę: kliknij na zielony przycisk z czarnym krzyżykiem, aby powiększyć; na zielony przycisk z myślnikiem, aby pomniejszyć; na zielone strzałki, aby przejść do map sąsiednich.


METAR-TAF: